Airfield :
LOGIN :

Register | Disclaimer

   EN    FR    IT 

 










Legend :    VFR   Marginal VFR   IFR   Intensive IFR   Very Intensive IFR
Visi :
Ceiling :
>= 8 km
>= 3000ft
5 to 8 km
1000 to 3000 ft
1500m to 5 km
500 to 1000 ft
800 to 1500m
200 to 500 ft
< 800m
< 200 ft
Symbols :   Thunderstorms  Fog  Heavy snow  Heavy precipitations  Wind > 20 kt
SIGMETs :     Misc.  Thunderstorms  Icing  Turbulence  Mountain Waves  Volcanic Ashes







- Airport Elevation : 1367 ft
- IATA code : FDH


EDNY - Friedrichshafen

CURRENT METAR :
  • 260850Z 22008KT 9999 FEW028 OVC066 13/08 Q1020

EXPIRED METARs :
  • 260820Z 21005KT 180V250 9999 FEW022 SCT025 OVC066 11/09 Q1020
  • 260720Z 20004KT 9999 FEW025 SCT042 OVC049 10/08 Q1020
  • 260650Z VRB01KT 9999 -RA FEW031 OVC043 10/09 Q1020

TAF TAF EDNY
Valid from the 26 at 06:00 until the 27 at 06:00 UTC


260500Z 2606/2706 25007KT 9999 SCT030
BECMG 2616/2618 VRB03KT
No reported NOTAMs for that airfield.



MET'MAP, your aeronautical weather chart ! - Copyright ORBIFLY December 2007 - Disclaimer

ORBIFLY MET'MAP TEAM :

Programming & Development : Alexandra Zaïnal
Concept & Development : Baudouin d'Aumeries
Co-Development & Prog : Marc-Olivier Méhu
Technical & hardware support : Manuel Goepfert

Contact : metmap@orbifly.com




SOURCES & CREDITS :

   NOAA